createdAt,value
2018-07-12T00:01:20.829Z,98949.56
2018-07-12T00:03:48.586Z,98946.66
2018-07-12T00:06:17.242Z,98951.66
2018-07-12T00:08:48.872Z,98942.44
2018-07-12T00:11:19.028Z,98941.64
2018-07-12T00:13:46.730Z,98942.44
2018-07-12T00:16:15.794Z,98949.03
2018-07-12T00:18:44.922Z,98943.20
2018-07-12T00:21:12.695Z,98930.81
2018-07-12T00:23:40.745Z,98929.25
2018-07-12T00:26:08.692Z,98930.56
2018-07-12T00:28:37.120Z,98933.20
2018-07-12T00:31:04.840Z,98936.61
2018-07-12T00:33:33.710Z,98929.77
2018-07-12T00:36:02.082Z,98927.65
2018-07-12T00:38:29.827Z,98933.20
2018-07-12T00:40:57.830Z,98925.30
2018-07-12T00:43:25.572Z,98936.34
2018-07-12T00:45:55.690Z,98942.94
2018-07-12T00:48:23.466Z,98935.84
2018-07-12T00:50:53.508Z,98947.96
2018-07-12T00:53:21.227Z,98947.71
2018-07-12T00:55:49.741Z,98943.22
2018-07-12T00:58:17.711Z,98939.02
2018-07-12T01:00:46.547Z,98940.08
2018-07-12T01:03:15.101Z,98941.92
2018-07-12T01:05:43.750Z,98940.33
2018-07-12T01:08:11.492Z,98938.77
2018-07-12T01:10:41.119Z,98945.36
2018-07-12T01:13:11.622Z,98942.72
2018-07-12T01:15:39.355Z,98934.81
2018-07-12T01:20:39.883Z,98926.39
2018-07-12T01:23:07.630Z,98931.67
2018-07-12T01:25:35.391Z,98934.31
2018-07-12T01:28:03.440Z,98923.48
2018-07-12T01:30:31.213Z,98921.13
2018-07-12T01:32:58.937Z,98927.44
2018-07-12T01:35:26.736Z,98928.23
2018-07-12T01:37:55.466Z,98923.76
2018-07-12T01:40:23.207Z,98922.16
2018-07-12T01:42:50.925Z,98926.91
2018-07-12T01:45:18.674Z,98930.61
2018-07-12T01:47:46.851Z,98942.73
2018-07-12T01:50:14.615Z,98943.53
2018-07-12T01:52:46.218Z,98932.71
2018-07-12T01:55:14.569Z,98935.08
2018-07-12T01:57:44.527Z,98936.13
2018-07-12T02:00:12.276Z,98939.28
2018-07-12T02:02:40.015Z,98935.88
2018-07-12T02:05:12.057Z,98923.76
2018-07-12T02:07:39.814Z,98922.96
2018-07-12T02:10:07.560Z,98921.13
2018-07-12T02:12:35.956Z,98925.33
2018-07-12T02:15:04.814Z,98921.63
2018-07-12T02:17:32.950Z,98926.09
2018-07-12T02:22:39.235Z,98931.94
2018-07-12T02:25:07.619Z,98934.56
2018-07-12T02:27:35.845Z,98937.22
2018-07-12T02:30:03.719Z,98938.80
2018-07-12T02:32:32.099Z,98935.65
2018-07-12T02:34:59.857Z,98937.22
2018-07-12T02:37:27.584Z,98939.59
2018-07-12T02:39:57.375Z,98944.06
2018-07-12T02:42:25.393Z,98939.30
2018-07-12T02:44:53.302Z,98935.35
2018-07-12T02:47:21.303Z,98930.89
2018-07-12T02:49:49.603Z,98931.14
2018-07-12T02:52:17.635Z,98931.95
2018-07-12T02:54:45.351Z,98937.47
2018-07-12T02:57:13.074Z,98931.95
2018-07-12T02:59:41.625Z,98931.97
2018-07-12T03:02:09.651Z,98934.60
2018-07-12T03:04:37.393Z,98937.76
2018-07-12T03:07:05.130Z,98933.28
2018-07-12T03:09:32.855Z,98931.41
2018-07-12T03:12:03.889Z,98932.22
2018-07-12T03:14:31.606Z,98930.64
2018-07-12T03:16:59.337Z,98922.20
2018-07-12T03:19:27.346Z,98926.72
2018-07-12T03:21:55.058Z,98929.11
2018-07-12T03:24:22.783Z,98934.38
2018-07-12T03:26:50.722Z,98928.83
2018-07-12T03:29:18.748Z,98926.47
2018-07-12T03:31:46.532Z,98929.11
2018-07-12T03:34:14.275Z,98923.04
2018-07-12T03:36:43.446Z,98914.61
2018-07-12T03:39:11.163Z,98924.88
2018-07-12T03:41:41.726Z,98931.47
2018-07-12T03:44:10.655Z,98937.28
2018-07-12T03:46:39.218Z,98930.16
2018-07-12T03:49:07.504Z,98930.72
2018-07-12T03:51:35.520Z,98930.21
2018-07-12T03:54:03.235Z,98930.21
2018-07-12T03:56:30.960Z,98926.77
2018-07-12T03:58:58.974Z,98928.61
2018-07-12T04:01:26.702Z,98932.31
2018-07-12T04:03:54.455Z,98932.31
2018-07-12T04:06:22.170Z,98928.92
2018-07-12T04:08:50.158Z,98940.25
2018-07-12T04:11:17.880Z,98941.57
2018-07-12T04:13:45.597Z,98931.84
2018-07-12T04:16:13.346Z,98940.00
2018-07-12T04:18:41.353Z,98941.32
2018-07-12T04:21:09.419Z,98940.02
2018-07-12T04:23:37.226Z,98947.91
2018-07-12T04:26:05.266Z,98944.45
2018-07-12T04:28:32.981Z,98949.70
2018-07-12T04:31:00.740Z,98952.30
2018-07-12T04:33:28.782Z,98950.20
2018-07-12T04:35:56.549Z,98957.55
2018-07-12T04:38:24.303Z,98954.88
2018-07-12T04:40:52.321Z,98958.81
2018-07-12T04:43:20.075Z,98955.13
2018-07-12T04:45:47.824Z,98959.06
2018-07-12T04:48:15.818Z,98961.19
2018-07-12T04:50:43.637Z,98961.16
2018-07-12T04:53:11.576Z,98960.12
2018-07-12T04:55:39.631Z,98966.94
2018-07-12T04:58:09.021Z,98967.76
2018-07-12T05:00:36.807Z,98964.05
2018-07-12T05:03:04.983Z,98958.52
2018-07-12T05:05:32.743Z,98960.84
2018-07-12T05:08:02.145Z,98960.00
2018-07-12T05:10:30.199Z,98958.40
2018-07-12T05:12:57.916Z,98963.91
2018-07-12T05:15:25.708Z,98959.92
2018-07-12T05:17:53.703Z,98956.17
2018-07-12T05:20:21.745Z,98955.06
2018-07-12T05:22:49.479Z,98956.36
2018-07-12T05:25:17.486Z,98966.89
2018-07-12T05:27:45.247Z,98964.27
2018-07-12T05:30:12.974Z,98969.04
2018-07-12T05:32:41.082Z,98965.63
2018-07-12T05:35:09.069Z,98969.33
2018-07-12T05:37:36.844Z,98976.70
2018-07-12T05:40:04.870Z,98974.81
2018-07-12T05:42:33.321Z,98979.00
2018-07-12T05:45:02.646Z,98976.13
2018-07-12T05:47:30.921Z,98977.25
2018-07-12T05:50:01.607Z,98988.30
2018-07-12T05:52:29.518Z,98988.26
2018-07-12T05:54:58.262Z,98986.65
2018-07-12T05:57:26.038Z,98995.59
2018-07-12T05:59:54.358Z,98991.88
2018-07-12T06:02:24.346Z,98990.27
2018-07-12T06:04:54.647Z,98989.74
2018-07-12T06:07:29.214Z,98998.15
2018-07-12T06:09:57.211Z,99000.21
2018-07-12T06:12:24.980Z,99002.31
2018-07-12T06:14:52.727Z,99006.77
2018-07-12T06:17:21.456Z,99008.39
2018-07-12T06:19:52.641Z,99010.23
2018-07-12T06:22:20.967Z,99016.83
2018-07-12T06:24:48.728Z,99023.16
2018-07-12T06:27:16.758Z,99027.09
2018-07-12T06:29:44.831Z,99028.67
2018-07-12T06:32:12.558Z,99022.31
2018-07-12T06:34:40.754Z,99030.23
2018-07-12T06:37:09.569Z,99026.03
2018-07-12T06:39:37.555Z,99028.09
2018-07-12T06:42:09.312Z,99030.23
2018-07-12T06:44:37.018Z,99023.72
2018-07-12T06:47:05.475Z,99026.70
2018-07-12T06:49:33.698Z,99022.78
2018-07-12T06:52:01.451Z,99028.95
2018-07-12T06:54:29.325Z,99028.44
2018-07-12T06:56:59.314Z,99033.13
2018-07-12T06:59:28.324Z,99028.59
2018-07-12T07:01:56.873Z,99032.73
2018-07-12T07:04:24.958Z,99040.89
2018-07-12T07:06:52.784Z,99041.14
2018-07-12T07:09:22.584Z,99035.56
2018-07-12T07:11:51.353Z,99051.86
2018-07-12T07:14:20.568Z,99047.11
2018-07-12T07:16:49.214Z,99049.95
2018-07-12T07:19:19.336Z,99053.91
2018-07-12T07:21:47.799Z,99059.66
2018-07-12T07:24:15.636Z,99063.08
2018-07-12T07:26:46.753Z,99063.60
2018-07-12T07:29:14.519Z,99073.92
2018-07-12T07:31:42.272Z,99073.17
2018-07-12T07:34:11.408Z,99073.92
2018-07-12T07:36:40.343Z,99078.13
2018-07-12T07:39:08.107Z,99070.25
2018-07-12T07:41:36.250Z,99079.81
2018-07-12T07:44:04.001Z,99085.34
2018-07-12T07:46:31.757Z,99087.95
2018-07-12T07:49:02.668Z,99092.11
2018-07-12T07:51:32.411Z,99086.23
2018-07-12T07:54:02.345Z,99082.52
2018-07-12T07:56:31.418Z,99091.47
2018-07-12T08:01:46.914Z,99091.95
2018-07-12T08:04:15.456Z,99086.69
2018-07-12T08:06:43.306Z,99091.91
2018-07-12T08:09:19.479Z,99088.16
2018-07-12T08:11:47.523Z,99093.64
2018-07-12T08:14:15.370Z,99095.98
2018-07-12T08:16:45.552Z,99095.14
2018-07-12T08:21:34.054Z,99098.00
2018-07-12T08:24:02.255Z,99103.23
2018-07-12T08:26:31.850Z,99095.88
2018-07-12T08:29:01.853Z,99105.19
2018-07-12T08:31:31.427Z,99104.71
2018-07-12T08:33:59.207Z,99094.72
2018-07-12T08:36:26.921Z,99097.61
2018-07-12T08:38:56.924Z,99091.22
2018-07-12T08:41:24.714Z,99098.25
2018-07-12T08:43:52.507Z,99096.30
2018-07-12T08:46:20.824Z,99101.47
2018-07-12T08:48:49.377Z,99099.02
2018-07-12T08:51:17.964Z,99106.95
2018-07-12T08:53:46.377Z,99104.00
2018-07-12T08:56:14.338Z,99100.99
2018-07-12T08:58:44.966Z,99097.95
2018-07-12T09:01:14.479Z,99094.61
2018-07-12T09:03:42.307Z,99096.78
2018-07-12T09:06:10.732Z,99097.41
2018-07-12T09:08:40.041Z,99098.06
2018-07-12T09:11:08.569Z,99099.59
2018-07-12T09:13:36.310Z,99095.26
2018-07-12T09:16:05.169Z,99092.25
2018-07-12T09:18:34.526Z,99094.26
2018-07-12T09:21:02.336Z,99104.10
2018-07-12T09:23:31.244Z,99103.69
2018-07-12T09:25:59.825Z,99105.66
2018-07-12T09:28:27.603Z,99107.22
2018-07-12T09:30:56.626Z,99106.91
2018-07-12T09:33:24.451Z,99111.59
2018-07-12T09:35:52.330Z,99107.48
2018-07-12T09:38:22.928Z,99110.53
2018-07-12T09:40:51.619Z,99119.48
2018-07-12T09:43:20.503Z,99112.23
2018-07-12T09:45:49.729Z,99107.88
2018-07-12T09:48:18.901Z,99110.58
2018-07-12T09:50:47.614Z,99110.34
2018-07-12T09:53:17.043Z,99113.36
2018-07-12T09:55:48.644Z,99114.21
2018-07-12T09:58:16.626Z,99125.72
2018-07-12T10:00:49.522Z,99116.32
2018-07-12T10:03:21.908Z,99118.73
2018-07-12T10:05:54.998Z,99121.87
2018-07-12T10:08:28.438Z,99120.20
2018-07-12T10:11:01.088Z,99114.20
2018-07-12T10:13:33.156Z,99119.57
2018-07-12T10:16:06.292Z,99126.99
2018-07-12T10:18:35.011Z,99128.39
2018-07-12T10:21:04.367Z,99130.34
2018-07-12T10:23:32.914Z,99131.80
2018-07-12T10:26:03.657Z,99132.48
2018-07-12T10:30:59.521Z,99128.67
2018-07-12T10:33:27.288Z,99130.98
2018-07-12T10:35:55.328Z,99130.19
2018-07-12T10:38:23.284Z,99132.63
2018-07-12T10:40:52.303Z,99138.86
2018-07-12T10:43:22.335Z,99128.70
2018-07-12T10:45:50.090Z,99132.27
2018-07-12T10:48:17.844Z,99129.55
2018-07-12T10:50:48.339Z,99127.59
2018-07-12T10:53:16.101Z,99125.53
2018-07-12T10:55:44.921Z,99124.85
2018-07-12T10:58:14.532Z,99119.30
2018-07-12T11:00:43.270Z,99118.80
2018-07-12T11:03:14.168Z,99124.52
2018-07-12T11:05:41.955Z,99125.78
2018-07-12T11:08:09.715Z,99132.59
2018-07-12T11:10:37.766Z,99127.20
2018-07-12T11:13:05.637Z,99124.70
2018-07-12T11:15:35.497Z,99130.03
2018-07-12T11:18:04.944Z,99131.00
2018-07-12T11:20:32.783Z,99124.52
2018-07-12T11:23:01.962Z,99123.72
2018-07-12T11:25:32.511Z,99118.59
2018-07-12T11:28:05.080Z,99122.95
2018-07-12T11:30:33.854Z,99119.86
2018-07-12T11:33:01.935Z,99115.55
2018-07-12T11:35:29.745Z,99112.84
2018-07-12T11:37:59.492Z,99108.88
2018-07-12T11:40:28.536Z,99108.24
2018-07-12T11:42:59.345Z,99109.75
2018-07-12T11:45:28.093Z,99109.66
2018-07-12T11:47:56.527Z,99108.40
2018-07-12T11:50:24.291Z,99103.84
2018-07-12T11:52:54.378Z,99106.19
2018-07-12T11:55:23.417Z,99106.91
2018-07-12T11:57:51.768Z,99108.80
2018-07-12T12:00:19.663Z,99106.67
2018-07-12T12:02:51.509Z,99107.47
2018-07-12T12:05:21.494Z,99107.45
2018-07-12T12:07:50.390Z,99105.61
2018-07-12T12:10:18.335Z,99108.92
2018-07-12T12:12:48.598Z,99106.23
2018-07-12T12:15:16.673Z,99108.27
2018-07-12T12:17:44.452Z,99103.55
2018-07-12T12:20:13.344Z,99097.54
2018-07-12T12:22:42.051Z,99099.98
2018-07-12T12:25:09.795Z,99101.55
2018-07-12T12:27:37.529Z,99096.52
2018-07-12T12:30:05.703Z,99100.07
2018-07-12T12:32:33.462Z,99101.27
2018-07-12T12:35:02.444Z,99100.33
2018-07-12T12:37:30.455Z,99103.79
2018-07-12T12:39:59.424Z,99102.31
2018-07-12T12:42:27.248Z,99109.46
2018-07-12T12:44:55.415Z,99108.80
2018-07-12T12:50:30.379Z,99096.80
2018-07-12T12:53:00.528Z,99094.52
2018-07-12T12:55:29.242Z,99092.81
2018-07-12T12:57:58.129Z,99090.23
2018-07-12T13:00:27.234Z,99089.20
2018-07-12T13:02:59.058Z,99092.61
2018-07-12T13:05:27.342Z,99087.84
2018-07-12T13:08:03.632Z,99092.75
2018-07-12T13:10:32.066Z,99085.02
2018-07-12T13:15:37.093Z,99079.77
2018-07-12T13:18:04.993Z,99082.81
2018-07-12T13:20:34.135Z,99083.42
2018-07-12T13:23:04.531Z,99082.81
2018-07-12T13:25:37.175Z,99075.05
2018-07-12T13:28:09.594Z,99084.14
2018-07-12T13:30:45.046Z,99093.47
2018-07-12T13:33:15.272Z,99083.27
2018-07-12T13:38:17.960Z,99092.86
2018-07-12T13:40:45.810Z,99091.41
2018-07-12T13:43:13.759Z,99082.31
2018-07-12T13:45:43.298Z,99078.93
2018-07-12T13:48:11.451Z,99087.16
2018-07-12T13:50:40.897Z,99086.01
2018-07-12T13:53:09.027Z,99081.36
2018-07-12T13:55:36.790Z,99078.00
2018-07-12T13:58:05.471Z,99071.72
2018-07-12T14:00:33.670Z,99078.87
2018-07-12T14:03:01.446Z,99070.45
2018-07-12T14:05:34.275Z,99068.97
2018-07-12T14:08:02.575Z,99067.78
2018-07-12T14:10:30.505Z,99073.74
2018-07-12T14:12:59.684Z,99075.14
2018-07-12T14:15:27.835Z,99070.83
2018-07-12T14:17:55.594Z,99057.75
2018-07-12T14:20:24.308Z,99064.25
2018-07-12T14:22:52.359Z,99058.03
2018-07-12T14:25:20.249Z,99056.70
2018-07-12T14:27:48.259Z,99060.48
2018-07-12T14:30:18.571Z,99067.14
2018-07-12T14:32:46.419Z,99063.37
2018-07-12T14:35:14.221Z,99054.91
2018-07-12T14:37:45.648Z,99064.31
2018-07-12T14:40:14.080Z,99063.69
2018-07-12T14:42:41.822Z,99070.58
2018-07-12T14:45:14.046Z,99066.81
2018-07-12T14:47:41.927Z,99063.52
2018-07-12T14:50:09.987Z,99062.45
2018-07-12T14:52:38.200Z,99057.63
2018-07-12T14:55:07.471Z,99054.67
2018-07-12T14:57:35.628Z,99066.50
2018-07-12T15:00:04.468Z,99062.73
2018-07-12T15:02:34.980Z,99063.61
2018-07-12T15:05:04.314Z,99054.27
2018-07-12T15:07:33.542Z,99063.84
2018-07-12T15:10:03.102Z,99060.06
2018-07-12T15:12:31.766Z,99066.95
2018-07-12T15:14:59.966Z,99061.88
2018-07-12T15:17:27.777Z,99063.21
2018-07-12T15:19:55.517Z,99065.88
2018-07-12T15:22:24.455Z,99062.95
2018-07-12T15:24:52.270Z,99062.73
2018-07-12T15:27:20.855Z,99058.50
2018-07-12T15:29:49.928Z,99062.28
2018-07-12T15:32:17.675Z,99065.34
2018-07-12T15:34:46.471Z,99067.91
2018-07-12T15:37:17.632Z,99077.19
2018-07-12T15:39:45.579Z,99075.30
2018-07-12T15:42:16.316Z,99071.86
2018-07-12T15:44:44.936Z,99077.46
2018-07-12T15:47:13.867Z,99079.26
2018-07-12T15:49:42.372Z,99074.24
2018-07-12T15:52:29.312Z,99074.25
2018-07-12T15:54:58.518Z,99072.47
2018-07-12T15:57:28.680Z,99075.88
2018-07-12T15:59:58.521Z,99067.30
2018-07-12T16:02:27.418Z,99070.72
2018-07-12T16:04:56.199Z,99070.02
2018-07-12T16:07:23.990Z,99068.95
2018-07-12T16:09:51.793Z,99069.95
2018-07-12T16:12:22.488Z,99066.45
2018-07-12T16:14:52.428Z,99066.34
2018-07-12T16:17:20.213Z,99061.52
2018-07-12T16:19:48.799Z,99061.31
2018-07-12T16:22:17.341Z,99055.83
2018-07-12T16:24:51.001Z,99050.88
2018-07-12T16:27:21.644Z,99051.00
2018-07-12T16:29:49.503Z,99041.12
2018-07-12T16:32:17.566Z,99040.14
2018-07-12T16:34:46.503Z,99040.80
2018-07-12T16:37:14.373Z,99037.26
2018-07-12T16:39:42.674Z,99041.13
2018-07-12T16:42:11.583Z,99038.83
2018-07-12T16:44:40.775Z,99034.10
2018-07-12T16:47:10.559Z,99036.52
2018-07-12T16:49:39.359Z,99030.47
2018-07-12T16:52:08.835Z,99027.64
2018-07-12T16:54:38.802Z,99031.62
2018-07-12T16:57:06.467Z,99028.44
2018-07-12T16:59:34.331Z,99031.86
2018-07-12T17:02:02.497Z,99030.30
2018-07-12T17:04:30.250Z,99032.42
2018-07-12T17:06:58.764Z,99034.72
2018-07-12T17:09:26.838Z,99034.90
2018-07-12T17:11:54.640Z,99028.20
2018-07-12T17:14:22.540Z,99031.83
2018-07-12T17:16:51.087Z,99031.21
2018-07-12T17:19:21.875Z,99030.62
2018-07-12T17:21:49.659Z,99032.13
2018-07-12T17:24:18.496Z,99024.09
2018-07-12T17:26:50.228Z,99032.77
2018-07-12T17:29:19.035Z,99025.53
2018-07-12T17:31:48.347Z,99037.20
2018-07-12T17:34:16.142Z,99042.15
2018-07-12T17:36:47.965Z,99041.82
2018-07-12T17:39:17.162Z,99049.50
2018-07-12T17:41:48.572Z,99052.95
2018-07-12T17:44:20.547Z,99086.16
2018-07-12T17:46:48.589Z,99090.73
2018-07-12T17:49:16.391Z,99105.23
2018-07-12T17:51:48.379Z,99104.88
2018-07-12T17:54:16.620Z,99113.25
2018-07-12T17:56:48.697Z,99115.55
2018-07-12T17:59:17.693Z,99120.41
2018-07-12T18:01:47.709Z,99120.28
2018-07-12T18:04:16.660Z,99116.97
2018-07-12T18:06:45.428Z,99132.79
2018-07-12T18:09:15.081Z,99133.71
2018-07-12T18:11:44.732Z,99137.02
2018-07-12T18:14:15.018Z,99128.31
2018-07-12T18:16:44.636Z,99135.62
2018-07-12T18:19:15.549Z,99132.07
2018-07-12T18:21:45.799Z,99132.31
2018-07-12T18:24:14.755Z,99132.04
2018-07-12T18:26:42.728Z,99136.56
2018-07-12T18:29:11.416Z,99120.94
2018-07-12T18:31:40.378Z,99120.39
2018-07-12T18:34:08.502Z,99109.84
2018-07-12T18:36:37.575Z,99108.70
2018-07-12T18:39:12.632Z,99100.36
2018-07-12T18:41:40.586Z,99097.59
2018-07-12T18:44:08.678Z,99098.70
2018-07-12T18:46:37.634Z,99102.68
2018-07-12T18:49:06.149Z,99103.16
2018-07-12T18:51:34.288Z,99109.47
2018-07-12T18:54:02.252Z,99108.31
2018-07-12T18:56:30.051Z,99105.09
2018-07-12T18:58:58.309Z,99108.47
2018-07-12T19:01:26.130Z,99115.89
2018-07-12T19:03:55.431Z,99116.10
2018-07-12T19:06:23.711Z,99113.17
2018-07-12T19:08:52.611Z,99123.48
2018-07-12T19:11:21.398Z,99118.19
2018-07-12T19:13:51.237Z,99124.80
2018-07-12T19:16:21.504Z,99124.80
2018-07-12T19:18:50.216Z,99128.54
2018-07-12T19:21:18.519Z,99124.61
2018-07-12T19:23:50.656Z,99126.45
2018-07-12T19:26:19.855Z,99121.72
2018-07-12T19:28:50.148Z,99123.64
2018-07-12T19:31:18.696Z,99124.20
2018-07-12T19:33:47.448Z,99127.48
2018-07-12T19:36:19.796Z,99127.25
2018-07-12T19:38:47.649Z,99133.14
2018-07-12T19:41:16.640Z,99133.42
2018-07-12T19:43:46.374Z,99129.52
2018-07-12T19:46:14.870Z,99133.56
2018-07-12T19:48:43.369Z,99134.95
2018-07-12T19:51:11.171Z,99134.78
2018-07-12T19:53:40.783Z,99143.31
2018-07-12T19:56:11.928Z,99144.42
2018-07-12T19:58:39.723Z,99145.56
2018-07-12T20:01:08.063Z,99146.98
2018-07-12T20:03:37.467Z,99160.00
2018-07-12T20:06:05.291Z,99160.58
2018-07-12T20:08:33.265Z,99160.09
2018-07-12T20:11:05.254Z,99162.77
2018-07-12T20:13:35.647Z,99163.84
2018-07-12T20:16:04.100Z,99165.99
2018-07-12T20:18:34.382Z,99167.38
2018-07-12T20:21:03.234Z,99165.86
2018-07-12T20:23:31.064Z,99162.25
2018-07-12T20:26:00.745Z,99161.00
2018-07-12T20:28:31.020Z,99164.47
2018-07-12T20:31:10.727Z,99164.23
2018-07-12T20:33:41.668Z,99159.00
2018-07-12T20:36:12.208Z,99169.63
2018-07-12T20:38:39.954Z,99169.70
2018-07-12T20:41:08.215Z,99170.50
2018-07-12T20:43:36.802Z,99171.31
2018-07-12T20:46:04.589Z,99168.95
2018-07-12T20:48:32.662Z,99172.39
2018-07-12T20:51:00.971Z,99176.08
2018-07-12T20:53:32.335Z,99177.97
2018-07-12T20:56:00.574Z,99177.44
2018-07-12T20:58:34.445Z,99183.05
2018-07-12T21:01:02.244Z,99180.45
2018-07-12T21:03:30.500Z,99178.87
2018-07-12T21:05:58.296Z,99177.58
2018-07-12T21:08:27.064Z,99179.95
2018-07-12T21:10:55.222Z,99177.88
2018-07-12T21:13:26.676Z,99180.28
2018-07-12T21:15:56.271Z,99182.64
2018-07-12T21:18:24.521Z,99183.21
2018-07-12T21:20:52.295Z,99185.60
2018-07-12T21:23:20.074Z,99183.23
2018-07-12T21:25:50.407Z,99190.35
2018-07-12T21:28:18.182Z,99191.69
2018-07-12T21:30:46.915Z,99191.44
2018-07-12T21:33:15.301Z,99193.03
2018-07-12T21:35:44.393Z,99195.17
2018-07-12T21:38:12.403Z,99187.28
2018-07-12T21:40:40.597Z,99191.78
2018-07-12T21:43:08.405Z,99184.39
2018-07-12T21:45:37.613Z,99195.23
2018-07-12T21:48:08.390Z,99197.09
2018-07-12T21:50:42.872Z,99196.84
2018-07-12T21:53:10.637Z,99197.66
2018-07-12T21:55:41.143Z,99202.16
2018-07-12T22:00:42.795Z,99204.57
2018-07-12T22:03:11.038Z,99208.81
2018-07-12T22:05:40.370Z,99206.47
2018-07-12T22:08:09.315Z,99209.37
2018-07-12T22:10:39.994Z,99208.33
2018-07-12T22:13:09.680Z,99203.31
2018-07-12T22:15:37.411Z,99200.95
2018-07-12T22:18:05.955Z,99201.77
2018-07-12T22:20:34.122Z,99204.97
2018-07-12T22:23:02.127Z,99206.83
2018-07-12T22:25:29.859Z,99205.26
2018-07-12T22:27:57.611Z,99203.40
2018-07-12T22:30:25.861Z,99199.45
2018-07-12T22:32:54.596Z,99195.51
2018-07-12T22:35:23.276Z,99202.91
2018-07-12T22:37:51.431Z,99203.73
2018-07-12T22:40:20.387Z,99199.77
2018-07-12T22:42:48.382Z,99206.37
2018-07-12T22:45:16.445Z,99203.19
2018-07-12T22:47:44.218Z,99202.17
2018-07-12T22:50:12.543Z,99202.45
2018-07-12T22:52:46.608Z,99203.77
2018-07-12T22:55:15.314Z,99201.90
2018-07-12T22:57:43.678Z,99202.97
2018-07-12T23:00:11.440Z,99199.02
2018-07-12T23:02:39.748Z,99199.02
2018-07-12T23:05:07.499Z,99208.80
2018-07-12T23:07:35.261Z,99206.93
2018-07-12T23:10:03.336Z,99199.28
2018-07-12T23:12:31.118Z,99196.94
2018-07-12T23:14:58.858Z,99195.88
2018-07-12T23:17:27.869Z,99195.34
2018-07-12T23:19:55.630Z,99199.59
2018-07-12T23:22:23.500Z,99204.86
2018-07-12T23:24:51.600Z,99204.86
2018-07-12T23:27:19.547Z,99199.59
2018-07-12T23:29:52.682Z,99206.44
2018-07-12T23:32:20.723Z,99197.73
2018-07-12T23:34:48.491Z,99202.24
2018-07-12T23:37:16.210Z,99198.01
2018-07-12T23:39:43.969Z,99198.02
2018-07-12T23:42:12.020Z,99198.54
2018-07-12T23:44:39.756Z,99198.03
2018-07-12T23:47:07.541Z,99202.77
2018-07-12T23:49:35.279Z,99201.70
2018-07-12T23:52:03.725Z,99202.26
2018-07-12T23:54:31.458Z,99209.63
2018-07-12T23:56:59.177Z,99211.23
2018-07-12T23:59:27.198Z,99205.42
